createdAt,value
2023-05-05T00:01:08.163Z,58.66
2023-05-05T00:03:35.479Z,58.64
2023-05-05T00:06:02.919Z,59.42
2023-05-05T00:08:29.644Z,59.07
2023-05-05T00:10:56.346Z,59.92
2023-05-05T00:13:23.465Z,57.68
2023-05-05T00:15:51.832Z,59.75
2023-05-05T00:18:19.248Z,58.93
2023-05-05T00:20:46.533Z,58.35
2023-05-05T00:23:18.757Z,59.71
2023-05-05T00:25:45.528Z,59.23
2023-05-05T00:28:12.576Z,59.93
2023-05-05T00:31:02.019Z,59.37
2023-05-05T00:33:28.877Z,59.31
2023-05-05T00:35:55.627Z,59.85
2023-05-05T00:38:22.878Z,60.08
2023-05-05T00:40:49.613Z,59.66
2023-05-05T00:43:16.891Z,58.59
2023-05-05T00:45:43.854Z,60.13
2023-05-05T00:48:10.721Z,60.52
2023-05-05T00:50:37.603Z,59.90
2023-05-05T00:53:06.785Z,60.29
2023-05-05T00:55:34.107Z,60.49
2023-05-05T00:58:01.358Z,59.87
2023-05-05T01:00:28.540Z,60.73
2023-05-05T01:03:30.295Z,62.06
2023-05-05T01:06:12.509Z,61.84
2023-05-05T01:09:04.626Z,61.07
2023-05-05T01:12:02.784Z,62.61
2023-05-05T01:14:40.504Z,62.97
2023-05-05T01:17:16.802Z,62.50
2023-05-05T01:20:09.866Z,62.81
2023-05-05T01:22:39.602Z,63.63
2023-05-05T01:25:25.082Z,63.03
2023-05-05T01:28:18.339Z,62.96
2023-05-05T01:31:20.005Z,62.64
2023-05-05T01:33:49.316Z,61.75
2023-05-05T01:36:23.825Z,62.82
2023-05-05T01:38:53.749Z,63.14
2023-05-05T01:41:24.675Z,63.19
2023-05-05T01:43:54.463Z,63.79
2023-05-05T01:46:21.864Z,64.58
2023-05-05T01:48:48.860Z,63.48
2023-05-05T01:51:16.079Z,63.63
2023-05-05T01:53:44.340Z,63.28
2023-05-05T01:56:11.338Z,63.67
2023-05-05T01:58:38.183Z,65.07
2023-05-05T02:01:05.227Z,64.76
2023-05-05T02:03:32.577Z,64.67
2023-05-05T02:05:59.667Z,64.55
2023-05-05T02:08:26.888Z,64.00
2023-05-05T02:10:54.219Z,64.05
2023-05-05T02:13:21.803Z,65.00
2023-05-05T02:19:18.247Z,65.21
2023-05-05T02:21:45.364Z,66.96
2023-05-05T02:24:12.430Z,67.65
2023-05-05T02:26:39.891Z,67.32
2023-05-05T02:29:20.130Z,67.94
2023-05-05T02:31:49.930Z,68.00
2023-05-05T02:34:18.510Z,68.81
2023-05-05T02:36:45.481Z,68.32
2023-05-05T02:39:27.539Z,68.90
2023-05-05T02:41:54.766Z,68.04
2023-05-05T02:44:23.162Z,68.19
2023-05-05T02:46:49.945Z,67.71
2023-05-05T02:49:17.234Z,67.75
2023-05-05T02:51:44.324Z,68.08
2023-05-05T02:54:11.348Z,67.74
2023-05-05T02:56:48.872Z,68.06
2023-05-05T03:03:14.125Z,67.98
2023-05-05T03:05:47.388Z,67.75
2023-05-05T03:08:18.190Z,67.68
2023-05-05T03:14:19.311Z,68.43
2023-05-05T03:16:46.399Z,68.24
2023-05-05T03:19:14.789Z,68.88
2023-05-05T03:21:42.773Z,69.60
2023-05-05T03:24:13.777Z,69.84
2023-05-05T03:26:41.041Z,69.83
2023-05-05T03:29:07.734Z,70.01
2023-05-05T03:31:34.831Z,69.92
2023-05-05T03:34:01.924Z,69.66
2023-05-05T03:36:29.479Z,69.79
2023-05-05T03:38:57.345Z,70.25
2023-05-05T03:41:24.078Z,70.60
2023-05-05T03:43:51.606Z,71.02
2023-05-05T03:46:21.341Z,70.17
2023-05-05T03:48:48.450Z,70.16
2023-05-05T03:51:15.873Z,70.97
2023-05-05T03:53:42.585Z,71.78
2023-05-05T03:56:09.678Z,70.99
2023-05-05T03:58:36.705Z,71.73
2023-05-05T04:01:03.584Z,72.07
2023-05-05T04:03:31.001Z,71.15
2023-05-05T04:05:58.904Z,70.28
2023-05-05T04:08:25.593Z,70.22
2023-05-05T04:10:52.814Z,69.91
2023-05-05T04:13:19.560Z,69.31
2023-05-05T04:19:40.925Z,68.93
2023-05-05T04:22:08.430Z,69.18
2023-05-05T04:24:35.576Z,68.93
2023-05-05T04:27:03.192Z,68.74
2023-05-05T04:29:30.282Z,68.79
2023-05-05T04:31:57.047Z,69.22
2023-05-05T04:34:24.142Z,70.84
2023-05-05T04:36:51.325Z,70.46
2023-05-05T04:39:18.500Z,70.38
2023-05-05T04:41:45.331Z,69.94
2023-05-05T04:44:12.308Z,69.62
2023-05-05T04:46:39.198Z,69.14
2023-05-05T04:49:05.908Z,68.73
2023-05-05T04:51:32.861Z,67.97
2023-05-05T04:53:59.724Z,67.68
2023-05-05T04:56:27.421Z,67.29
2023-05-05T04:58:55.726Z,66.76
2023-05-05T05:01:22.646Z,66.86
2023-05-05T05:03:49.818Z,65.78
2023-05-05T05:06:16.737Z,67.38
2023-05-05T05:08:44.856Z,66.76
2023-05-05T05:11:11.909Z,66.17
2023-05-05T05:13:38.646Z,66.44
2023-05-05T05:16:07.415Z,67.32
2023-05-05T05:18:34.234Z,67.07
2023-05-05T05:21:01.536Z,65.17
2023-05-05T05:23:29.606Z,64.09
2023-05-05T05:25:56.804Z,63.75
2023-05-05T05:28:23.885Z,62.84
2023-05-05T05:30:51.251Z,60.39
2023-05-05T05:33:17.915Z,59.11
2023-05-05T05:35:45.010Z,57.41
2023-05-05T05:38:12.212Z,57.83
2023-05-05T05:41:10.258Z,54.76
2023-05-05T05:43:37.367Z,55.00
2023-05-05T05:46:08.271Z,60.67
2023-05-05T05:48:35.942Z,62.19
2023-05-05T05:51:03.914Z,61.62
2023-05-05T05:53:30.897Z,61.96
2023-05-05T05:55:58.422Z,64.06
2023-05-05T05:58:27.848Z,63.46
2023-05-05T06:00:54.663Z,59.80
2023-05-05T06:03:22.005Z,56.10
2023-05-05T06:05:49.138Z,55.66
2023-05-05T06:08:16.601Z,55.00
2023-05-05T06:10:43.897Z,54.73
2023-05-05T06:13:10.710Z,54.76
2023-05-05T06:15:37.499Z,52.03
2023-05-05T06:18:05.501Z,51.93
2023-05-05T06:20:35.085Z,53.50
2023-05-05T06:23:02.805Z,51.28
2023-05-05T06:25:29.956Z,51.59
2023-05-05T06:27:59.245Z,49.36
2023-05-05T06:30:27.253Z,48.91
2023-05-05T06:32:54.463Z,44.81
2023-05-05T06:35:21.443Z,44.37
2023-05-05T06:37:48.618Z,43.49
2023-05-05T06:40:16.515Z,45.43
2023-05-05T06:42:54.244Z,45.48
2023-05-05T06:45:26.715Z,45.48
2023-05-05T06:47:53.543Z,46.40
2023-05-05T06:50:20.333Z,45.83
2023-05-05T06:52:48.625Z,44.34
2023-05-05T06:55:18.201Z,45.74
2023-05-05T06:57:45.879Z,44.99
2023-05-05T07:00:23.442Z,44.83
2023-05-05T07:02:51.002Z,45.37
2023-05-05T07:05:18.601Z,47.17
2023-05-05T07:07:55.718Z,46.13
2023-05-05T07:10:23.278Z,46.64
2023-05-05T07:12:50.131Z,45.77
2023-05-05T07:15:27.430Z,46.46
2023-05-05T07:17:56.376Z,44.31
2023-05-05T07:20:24.686Z,47.06
2023-05-05T07:22:52.367Z,45.94
2023-05-05T07:25:20.155Z,43.04
2023-05-05T07:27:47.237Z,44.48
2023-05-05T07:30:18.131Z,44.83
2023-05-05T07:32:49.027Z,43.28
2023-05-05T07:35:16.571Z,43.78
2023-05-05T07:37:45.712Z,44.90
2023-05-05T07:40:12.786Z,44.59
2023-05-05T07:42:42.201Z,45.10
2023-05-05T07:45:10.865Z,46.69
2023-05-05T07:47:39.252Z,45.50
2023-05-05T07:50:08.852Z,44.56
2023-05-05T07:52:46.524Z,44.32
2023-05-05T07:55:15.850Z,44.91
2023-05-05T07:57:42.609Z,44.14
2023-05-05T08:00:11.135Z,43.84
2023-05-05T08:02:38.609Z,43.63
2023-05-05T08:05:07.009Z,42.94
2023-05-05T08:07:35.064Z,42.91
2023-05-05T08:10:02.938Z,43.72
2023-05-05T08:12:30.108Z,41.96
2023-05-05T08:14:58.064Z,40.51
2023-05-05T08:17:25.140Z,39.63
2023-05-05T08:20:02.188Z,38.28
2023-05-05T08:22:29.723Z,40.07
2023-05-05T08:24:57.981Z,39.94
2023-05-05T08:27:25.058Z,42.89
2023-05-05T08:29:52.089Z,42.42
2023-05-05T08:32:21.577Z,39.83
2023-05-05T08:34:48.894Z,40.86
2023-05-05T08:37:15.993Z,38.71
2023-05-05T08:39:44.228Z,40.23
2023-05-05T08:42:12.324Z,40.13
2023-05-05T08:44:40.965Z,37.99
2023-05-05T08:47:08.678Z,38.44
2023-05-05T08:49:40.580Z,40.01
2023-05-05T08:52:07.345Z,39.16
2023-05-05T08:54:36.125Z,42.54
2023-05-05T08:57:03.241Z,40.86
2023-05-05T08:59:30.550Z,39.79
2023-05-05T09:02:01.519Z,39.36
2023-05-05T09:04:28.652Z,38.45
2023-05-05T09:06:58.272Z,39.70
2023-05-05T09:09:27.877Z,38.08
2023-05-05T09:11:55.740Z,38.35
2023-05-05T09:14:23.196Z,38.71
2023-05-05T09:16:50.114Z,38.99
2023-05-05T09:19:16.854Z,40.59
2023-05-05T09:21:47.489Z,37.95
2023-05-05T09:24:14.494Z,37.80
2023-05-05T09:26:42.764Z,35.99
2023-05-05T09:29:09.580Z,37.21
2023-05-05T09:31:36.749Z,37.51
2023-05-05T09:34:16.514Z,36.25
2023-05-05T09:36:48.183Z,35.94
2023-05-05T09:39:34.810Z,37.22
2023-05-05T09:42:01.599Z,38.22
2023-05-05T09:44:39.207Z,37.61
2023-05-05T09:47:18.106Z,36.77
2023-05-05T09:49:59.039Z,36.59
2023-05-05T09:52:26.318Z,37.06
2023-05-05T09:54:58.960Z,35.65
2023-05-05T09:57:30.752Z,36.45
2023-05-05T10:00:04.070Z,37.75
2023-05-05T10:02:35.550Z,35.78
2023-05-05T10:05:05.328Z,35.60
2023-05-05T10:07:32.143Z,35.83
2023-05-05T10:09:58.907Z,35.27
2023-05-05T10:12:26.182Z,34.54
2023-05-05T10:14:52.995Z,32.90
2023-05-05T10:17:20.048Z,32.28
2023-05-05T10:19:47.079Z,35.02
2023-05-05T10:22:14.161Z,34.93
2023-05-05T10:24:44.646Z,33.87
2023-05-05T10:27:19.028Z,34.21
2023-05-05T10:30:03.204Z,36.21
2023-05-05T10:33:04.051Z,36.40
2023-05-05T10:35:35.624Z,34.50
2023-05-05T10:38:02.680Z,36.90
2023-05-05T10:40:29.696Z,37.04
2023-05-05T10:42:56.929Z,35.25
2023-05-05T10:45:23.685Z,35.16
2023-05-05T10:47:50.801Z,34.36
2023-05-05T10:50:31.113Z,36.73
2023-05-05T10:53:13.237Z,35.81
2023-05-05T10:55:44.610Z,35.17
2023-05-05T10:58:51.208Z,33.66
2023-05-05T11:01:31.856Z,32.76
2023-05-05T11:04:21.827Z,33.54
2023-05-05T11:07:27.172Z,34.84
2023-05-05T11:09:59.944Z,32.42
2023-05-05T11:12:27.379Z,33.25
2023-05-05T11:15:28.802Z,32.20
2023-05-05T11:17:58.017Z,32.60
2023-05-05T11:20:44.428Z,33.67
2023-05-05T11:23:11.417Z,33.20
2023-05-05T11:25:47.942Z,33.73
2023-05-05T11:28:18.895Z,31.74
2023-05-05T11:30:55.853Z,32.69
2023-05-05T11:33:32.140Z,33.10
2023-05-05T11:36:05.958Z,33.39
2023-05-05T11:38:54.876Z,33.24
2023-05-05T11:41:33.553Z,33.95
2023-05-05T11:44:29.475Z,33.85
2023-05-05T11:47:00.670Z,32.07
2023-05-05T11:49:41.356Z,31.71
2023-05-05T11:52:11.995Z,32.06
2023-05-05T11:54:40.990Z,31.34
2023-05-05T11:57:08.769Z,32.59
2023-05-05T11:59:36.719Z,31.85
2023-05-05T12:02:04.703Z,31.58
2023-05-05T12:04:31.512Z,30.86
2023-05-05T12:06:59.927Z,31.93
2023-05-05T12:09:26.957Z,32.91
2023-05-05T12:11:58.327Z,33.05
2023-05-05T12:14:25.625Z,32.44
2023-05-05T12:16:58.409Z,30.24
2023-05-05T12:19:25.915Z,32.09
2023-05-05T12:21:52.898Z,30.98
2023-05-05T12:24:20.010Z,31.26
2023-05-05T12:26:47.193Z,32.75
2023-05-05T12:29:23.369Z,32.71
2023-05-05T12:31:50.206Z,33.39
2023-05-05T12:34:17.566Z,34.21
2023-05-05T12:36:44.824Z,34.82
2023-05-05T12:39:12.850Z,35.63
2023-05-05T12:41:42.419Z,34.49
2023-05-05T12:44:09.678Z,32.89
2023-05-05T12:46:46.369Z,33.57
2023-05-05T12:49:16.557Z,32.80
2023-05-05T12:51:58.434Z,31.56
2023-05-05T12:54:25.240Z,33.48
2023-05-05T12:56:52.486Z,34.97
2023-05-05T12:59:25.441Z,33.10
2023-05-05T13:01:53.554Z,32.86
2023-05-05T13:04:22.315Z,32.61
2023-05-05T13:06:52.559Z,33.13
2023-05-05T13:09:27.946Z,33.12
2023-05-05T13:11:55.145Z,31.67
2023-05-05T13:14:22.411Z,31.62
2023-05-05T13:16:49.217Z,31.24
2023-05-05T13:19:16.018Z,31.29
2023-05-05T13:21:44.181Z,31.99
2023-05-05T13:24:21.183Z,32.63
2023-05-05T13:26:58.235Z,31.40
2023-05-05T13:29:55.589Z,33.16
2023-05-05T13:32:22.741Z,30.42
2023-05-05T13:34:49.589Z,32.58
2023-05-05T13:37:16.545Z,32.80
2023-05-05T13:39:44.444Z,32.02
2023-05-05T13:42:11.964Z,31.91
2023-05-05T13:44:39.204Z,31.11
2023-05-05T13:47:08.396Z,34.39
2023-05-05T13:49:59.216Z,32.13
2023-05-05T13:52:26.385Z,33.12
2023-05-05T13:54:54.000Z,32.61
2023-05-05T13:57:23.499Z,32.36
2023-05-05T13:59:51.623Z,31.61
2023-05-05T14:02:19.375Z,32.04
2023-05-05T14:04:46.396Z,32.22
2023-05-05T14:07:14.918Z,31.44
2023-05-05T14:09:43.055Z,31.22
2023-05-05T14:12:10.082Z,31.21
2023-05-05T14:14:37.287Z,30.89
2023-05-05T14:17:05.599Z,30.80
2023-05-05T14:19:33.100Z,31.88
2023-05-05T14:22:00.188Z,31.48
2023-05-05T14:24:27.420Z,31.88
2023-05-05T14:26:57.193Z,33.51
2023-05-05T14:29:26.504Z,33.11
2023-05-05T14:31:56.120Z,33.24
2023-05-05T14:34:29.506Z,32.40
2023-05-05T14:36:56.378Z,31.07
2023-05-05T14:39:26.203Z,30.56
2023-05-05T14:41:53.591Z,30.64
2023-05-05T14:44:20.637Z,30.30
2023-05-05T14:46:49.005Z,29.16
2023-05-05T14:49:17.507Z,30.48
2023-05-05T14:51:47.167Z,30.52
2023-05-05T14:54:27.555Z,31.52
2023-05-05T14:56:56.065Z,31.74
2023-05-05T14:59:39.362Z,30.72
2023-05-05T15:02:10.486Z,30.76
2023-05-05T15:04:37.522Z,30.64
2023-05-05T15:07:05.213Z,29.70
2023-05-05T15:09:32.294Z,29.63
2023-05-05T15:11:59.608Z,29.36
2023-05-05T15:14:26.798Z,29.38
2023-05-05T15:16:55.108Z,29.95
2023-05-05T15:19:22.809Z,29.73
2023-05-05T15:21:50.814Z,29.21
2023-05-05T15:24:17.978Z,30.63
2023-05-05T15:26:44.739Z,30.72
2023-05-05T15:29:12.557Z,30.35
2023-05-05T15:31:42.448Z,30.45
2023-05-05T15:34:10.551Z,30.30
2023-05-05T15:36:37.692Z,29.97
2023-05-05T15:39:04.628Z,30.37
2023-05-05T15:41:33.613Z,30.31
2023-05-05T15:44:02.156Z,31.13
2023-05-05T15:46:34.458Z,30.92
2023-05-05T15:49:01.598Z,31.84
2023-05-05T15:51:28.883Z,31.06
2023-05-05T15:53:56.567Z,31.68
2023-05-05T15:56:23.717Z,31.23
2023-05-05T15:58:51.634Z,34.25
2023-05-05T16:01:22.307Z,34.53
2023-05-05T16:03:49.117Z,34.44
2023-05-05T16:06:18.713Z,34.32
2023-05-05T16:08:45.816Z,34.13
2023-05-05T16:11:15.581Z,34.67
2023-05-05T16:13:42.564Z,34.51
2023-05-05T16:16:09.339Z,34.57
2023-05-05T16:18:36.058Z,34.41
2023-05-05T16:21:35.850Z,33.35
2023-05-05T16:24:22.112Z,34.31
2023-05-05T16:26:49.309Z,34.07
2023-05-05T16:29:17.834Z,35.19
2023-05-05T16:31:45.068Z,36.38
2023-05-05T16:34:13.325Z,39.94
2023-05-05T16:36:41.586Z,41.44
2023-05-05T16:39:12.596Z,40.93
2023-05-05T16:41:41.406Z,42.67
2023-05-05T16:44:08.378Z,44.46
2023-05-05T16:46:35.342Z,45.47
2023-05-05T16:49:03.207Z,46.27
2023-05-05T16:51:30.385Z,44.69
2023-05-05T16:53:57.447Z,44.11
2023-05-05T16:56:24.678Z,43.34
2023-05-05T16:58:51.775Z,43.37
2023-05-05T17:01:19.846Z,41.76
2023-05-05T17:03:47.102Z,42.93
2023-05-05T17:06:14.358Z,43.95
2023-05-05T17:08:41.933Z,42.48
2023-05-05T17:11:10.974Z,41.30
2023-05-05T17:13:38.778Z,42.29
2023-05-05T17:16:05.743Z,41.10
2023-05-05T17:18:33.236Z,42.10
2023-05-05T17:21:00.056Z,42.33
2023-05-05T17:23:27.308Z,39.81
2023-05-05T17:25:57.079Z,37.11
2023-05-05T17:28:23.935Z,37.69
2023-05-05T17:30:51.134Z,41.33
2023-05-05T17:33:17.904Z,41.29
2023-05-05T17:35:46.188Z,42.52
2023-05-05T17:38:13.090Z,42.56
2023-05-05T17:40:42.803Z,42.38
2023-05-05T17:43:10.733Z,42.54
2023-05-05T17:45:37.485Z,42.52
2023-05-05T17:48:04.520Z,43.36
2023-05-05T17:50:31.323Z,43.57
2023-05-05T17:52:58.109Z,44.74
2023-05-05T17:55:25.714Z,42.72
2023-05-05T17:57:53.039Z,42.83
2023-05-05T18:00:23.874Z,44.30
2023-05-05T18:02:50.873Z,45.89
2023-05-05T18:05:18.325Z,44.64
2023-05-05T18:07:45.166Z,45.17
2023-05-05T18:10:12.306Z,47.89
2023-05-05T18:12:40.893Z,45.96
2023-05-05T18:15:08.186Z,46.00
2023-05-05T18:17:35.757Z,45.84
2023-05-05T18:20:02.773Z,45.08
2023-05-05T18:22:29.591Z,43.94
2023-05-05T18:24:56.309Z,43.51
2023-05-05T18:27:25.821Z,43.34
2023-05-05T18:29:52.650Z,43.40
2023-05-05T18:32:19.511Z,41.92
2023-05-05T18:34:46.698Z,41.80
2023-05-05T18:37:13.395Z,41.72
2023-05-05T18:39:44.139Z,42.48
2023-05-05T18:42:13.070Z,49.03
2023-05-05T18:44:39.895Z,50.37
2023-05-05T18:47:08.262Z,50.33
2023-05-05T18:49:35.282Z,48.99
2023-05-05T18:52:02.474Z,49.54
2023-05-05T18:54:29.624Z,49.60
2023-05-05T18:56:58.636Z,47.12
2023-05-05T18:59:25.882Z,47.74
2023-05-05T19:01:52.730Z,47.12
2023-05-05T19:04:30.688Z,46.30
2023-05-05T19:06:58.635Z,48.04
2023-05-05T19:09:26.172Z,50.76
2023-05-05T19:11:55.767Z,51.99
2023-05-05T19:14:22.936Z,51.13
2023-05-05T19:16:51.077Z,51.40
2023-05-05T19:19:18.107Z,53.22
2023-05-05T19:21:45.362Z,53.70
2023-05-05T19:24:12.307Z,53.43
2023-05-05T19:30:47.559Z,52.85
2023-05-05T19:33:17.646Z,53.38
2023-05-05T19:35:47.166Z,52.03
2023-05-05T19:38:14.093Z,50.38
2023-05-05T19:40:42.051Z,48.85
2023-05-05T19:43:09.529Z,47.86
2023-05-05T19:45:42.524Z,47.38
2023-05-05T19:48:10.357Z,46.87
2023-05-05T19:50:38.455Z,47.45
2023-05-05T19:53:05.577Z,54.32
2023-05-05T19:55:32.611Z,55.97
2023-05-05T19:58:02.577Z,57.10
2023-05-05T20:00:29.747Z,57.66
2023-05-05T20:02:57.053Z,55.94
2023-05-05T20:05:24.213Z,57.96
2023-05-05T20:07:54.019Z,59.37
2023-05-05T20:10:22.880Z,59.86
2023-05-05T20:12:49.718Z,59.58
2023-05-05T20:15:19.260Z,59.00
2023-05-05T20:17:47.248Z,57.88
2023-05-05T20:20:16.128Z,58.26
2023-05-05T20:22:43.709Z,59.61
2023-05-05T20:25:13.500Z,59.72
2023-05-05T20:27:40.658Z,58.35
2023-05-05T20:30:11.839Z,58.74
2023-05-05T20:32:39.657Z,59.95
2023-05-05T20:35:08.661Z,59.42
2023-05-05T20:37:36.409Z,59.26
2023-05-05T20:40:03.879Z,58.29
2023-05-05T20:42:31.988Z,60.28
2023-05-05T20:45:00.524Z,60.15
2023-05-05T20:47:27.851Z,61.41
2023-05-05T20:49:54.597Z,59.81
2023-05-05T20:52:21.421Z,60.13
2023-05-05T20:54:48.726Z,59.09
2023-05-05T20:57:15.756Z,56.99
2023-05-05T20:59:44.059Z,55.33
2023-05-05T21:02:12.174Z,57.20
2023-05-05T21:04:39.316Z,57.62
2023-05-05T21:07:07.040Z,59.70
2023-05-05T21:09:58.352Z,59.16
2023-05-05T21:12:45.204Z,59.69
2023-05-05T21:15:12.251Z,59.62
2023-05-05T21:17:39.201Z,59.68
2023-05-05T21:20:09.361Z,60.71
2023-05-05T21:22:36.301Z,58.81
2023-05-05T21:25:13.855Z,58.39
2023-05-05T21:27:40.518Z,56.08
2023-05-05T21:30:10.811Z,57.94
2023-05-05T21:32:57.054Z,60.21
2023-05-05T21:35:43.059Z,61.12
2023-05-05T21:38:28.767Z,61.81
2023-05-05T21:40:59.740Z,62.24
2023-05-05T21:43:45.366Z,62.93
2023-05-05T21:46:30.811Z,63.82
2023-05-05T21:49:16.329Z,63.96
2023-05-05T21:52:02.390Z,62.03
2023-05-05T21:54:49.339Z,62.52
2023-05-05T21:57:35.489Z,63.15
2023-05-05T22:00:02.766Z,63.34
2023-05-05T22:02:29.992Z,63.40
2023-05-05T22:04:56.832Z,63.97
2023-05-05T22:07:26.441Z,64.74
2023-05-05T22:09:54.463Z,66.09
2023-05-05T22:12:21.957Z,66.50
2023-05-05T22:14:48.821Z,67.96
2023-05-05T22:17:15.506Z,67.70
2023-05-05T22:19:43.466Z,69.47
2023-05-05T22:22:10.625Z,68.43
2023-05-05T22:24:39.099Z,66.89
2023-05-05T22:27:06.234Z,65.48
2023-05-05T22:29:34.353Z,67.73
2023-05-05T22:32:01.425Z,69.13
2023-05-05T22:34:28.117Z,68.91
2023-05-05T22:36:54.819Z,70.11
2023-05-05T22:39:22.065Z,66.34
2023-05-05T22:41:48.879Z,64.77
2023-05-05T22:44:16.032Z,62.88
2023-05-05T22:46:42.868Z,66.34
2023-05-05T22:49:09.630Z,68.09
2023-05-05T22:51:37.101Z,68.00
2023-05-05T22:54:04.715Z,68.60
2023-05-05T22:56:31.880Z,69.40
2023-05-05T22:58:58.986Z,70.01
2023-05-05T23:01:26.119Z,70.28
2023-05-05T23:03:52.951Z,71.04
2023-05-05T23:06:21.672Z,71.45
2023-05-05T23:08:48.685Z,70.94
2023-05-05T23:11:15.481Z,72.19
2023-05-05T23:13:42.901Z,71.87
2023-05-05T23:16:32.113Z,71.58
2023-05-05T23:18:59.246Z,70.45
2023-05-05T23:21:25.937Z,70.51
2023-05-05T23:23:53.057Z,70.32
2023-05-05T23:26:19.807Z,69.85
2023-05-05T23:28:46.737Z,70.56
2023-05-05T23:31:13.955Z,70.55
2023-05-05T23:33:42.728Z,69.69
2023-05-05T23:36:10.031Z,67.67
2023-05-05T23:38:37.936Z,68.00
2023-05-05T23:41:05.166Z,69.81
2023-05-05T23:43:32.351Z,69.70
2023-05-05T23:45:59.965Z,68.42
2023-05-05T23:48:26.741Z,70.08
2023-05-05T23:50:53.846Z,72.20
2023-05-05T23:53:20.529Z,72.50
2023-05-05T23:55:47.798Z,72.39
2023-05-05T23:58:14.487Z,72.86
